EGLLENML

Guest
Details From EGLL - London Heathrow
To ENML - Molde Årø
Flight Number -
Tags Generated
Created
Modified
Stats Distance 725 nm / 1,342 km
Max Altitude 0 ft / 0 m
Waypoints 4
Social Downloads 0
Likes 0
Share VATSIM

Download

Looking for another format? Having issues loading an existing format? Contact us
Advertisement - Login to hide

Notes

Generated

Route

EGLL UPATA TAT ENML

ID Type Via Altitude Latitude Longitude Leg Dist Tot Dist Heading (true) Name
O EGLL APT - 0 ft / 0 m 51.46477˚ -0.48695˚ - 0 nm - -
UPATA FIX - 0 ft / 0 m 58.69583˚ 3.48722˚ 455 nm 455 nm 16° / 19° -
TAT NDB - 0 ft / 0 m 62.67984˚ 6.91229˚ 259 nm 714 nm 21° / 24° TAUTRA NDB
O ENML APT - 0 ft / 0 m 62.74250˚ 7.24800˚ 9 nm 724 nm 68° / 68° -

Altitude Profile

Advertisement - Login to hide

Weather


0- 5 10 15 20 25 30 35+ Temperature / ° C

Clouds and Precipitation
Forecast for 2018-05-25 12:00 UTC. Updated 12 minutes ago

Ground ~20,000 ft ~40,000 ft Winds

EGLL

Details ICAO EGLL (LHR)
Name London Heathrow
Region United Kingdom
Timezone Europe/London (UTC+1.0)
Stats Elevation 83 ft / 25 m (AMSL)
Location 51.471218° -0.460978°
Runways 2
Magnetic Variation 0.495° W

METAR

EGLL 251120Z AUTO 28005KT 9000 BKN011 OVC018 16/13 Q1018 BECMG BKN015

Decode

TAF

TAF EGLL 250509Z 2506/2612 VRB04KT 7000 BKN010 TEMPO 2506/2509 BKN006 PROB30 TEMPO 2506/2509 3500 RADZ BECMG 2510/2513 9999 SCT020 PROB30 TEMPO 2517/2520 7000 SHRA TEMPO 2520/2606 7000 PROB30 TEMPO 2522/2606 4000 HZ PROB30 TEMPO 2602/2606 BKN006 BECMG 2603/2606 05010KT PROB30 TEMPO 2606/2612 3500 +SHRA BKN008 BKN048CB

Decode

Departure Runways

ID Width Length Bearing (true) Bearing (mag) Surface Threshold Offset Overrun Length
09L 164 ft / 50 m 12,811 ft / 3,905 m 89.64° 90.13° Asphalt 1,004 ft / 306 m 0 ft / 0 m
09R 164 ft / 50 m 12,019 ft / 3,663 m 89.67° 90.16° Asphalt 1,007 ft / 307 m 0 ft / 0 m
27L 164 ft / 50 m 12,019 ft / 3,663 m 269.71° 270.20° Asphalt 0 ft / 0 m 69 ft / 21 m
27R 164 ft / 50 m 12,811 ft / 3,905 m 269.69° 270.18° Asphalt 0 ft / 0 m 69 ft / 21 m

ENML

Details ICAO ENML (MOL)
Name Molde Aro
Region Norway
Timezone Europe/Oslo (UTC+2.0)
Stats Elevation 10 ft / 3 m (AMSL)
Location 62.745572° 7.267482°
Runways 1
Magnetic Variation 1.800° E

METAR

ENML 251120Z VRB03KT CAVOK 18/10 Q1029

Decode

TAF

Not found

Destination Runways

ID Width Length Bearing (true) Bearing (mag) Surface Threshold Offset Overrun Length
07 148 ft / 45 m 6,886 ft / 2,099 m 70.96° 69.16° Asphalt 230 ft / 70 m 0 ft / 0 m
25 148 ft / 45 m 6,886 ft / 2,099 m 251.00° 249.20° Asphalt 197 ft / 60 m 0 ft / 0 m

Approach Navaids

Runway Type Ident Frequency Range Bearing (true) Bearing (mag) Slope Elevation
07 Localiser ML 109.75 MHz 18 nm / 33 km 71.02° 69.22° - 4 ft / 1 m (AMSL)
07 Glidescope ML 109.75 MHz 10 nm / 19 km 71.02° 69.22° 3.10° 8 ft / 2 m (AMSL)
25 Localiser ME 109.10 MHz 18 nm / 33 km 256.01° 254.21° - 5 ft / 2 m (AMSL)

Popular Alternatives